createdAt,value
2018-05-07T04:09:28.553Z,73.83
2018-05-07T04:09:54.034Z,73.83
2018-05-07T04:10:19.518Z,73.63
2018-05-07T04:10:45.090Z,73.83
2018-05-07T04:11:10.556Z,73.63
2018-05-07T04:11:36.037Z,73.83
2018-05-07T04:12:01.529Z,73.44
2018-05-07T04:12:27.158Z,74.21
2018-05-07T04:12:52.673Z,73.83
2018-05-07T04:13:18.416Z,73.92
2018-05-07T04:13:43.708Z,73.83
2018-05-07T04:14:09.292Z,74.11
2018-05-07T04:14:34.616Z,73.54
2018-05-07T04:15:00.065Z,73.83
2018-05-07T04:15:25.613Z,73.83
2018-05-07T04:15:51.201Z,73.83
2018-05-07T04:16:16.652Z,74.02
2018-05-07T04:16:42.153Z,73.63
2018-05-07T04:17:07.718Z,73.83
2018-05-07T04:17:33.212Z,73.73
2018-05-07T04:17:58.659Z,73.73
2018-05-07T04:19:12.418Z,73.35
2018-05-07T04:19:37.931Z,73.73
2018-05-07T04:20:03.415Z,73.63
2018-05-07T04:20:28.863Z,74.21
2018-05-07T04:20:54.348Z,73.44
2018-05-07T04:21:19.868Z,73.73
2018-05-07T04:21:45.388Z,73.54
2018-05-07T04:22:10.829Z,73.83
2018-05-07T04:22:36.558Z,73.35
2018-05-07T04:23:02.001Z,73.83
2018-05-07T04:23:27.513Z,73.83
2018-05-07T04:23:53.064Z,73.63
2018-05-07T04:24:18.541Z,73.44
2018-05-07T04:24:44.049Z,73.63
2018-05-07T04:25:09.501Z,73.16
2018-05-07T04:25:35.014Z,73.54
2018-05-07T04:26:43.755Z,73.63
2018-05-07T04:27:09.237Z,73.73
2018-05-07T04:27:34.733Z,73.83
2018-05-07T04:28:00.205Z,73.92
2018-05-07T04:28:25.711Z,73.92
2018-05-07T04:28:51.208Z,74.02
2018-05-07T04:29:16.733Z,73.83
2018-05-07T04:29:42.226Z,73.83
2018-05-07T04:30:07.674Z,73.25
2018-05-07T04:30:33.154Z,73.16
2018-05-07T04:30:58.585Z,73.54
2018-05-07T04:31:24.042Z,73.63
2018-05-07T04:31:49.552Z,73.63
2018-05-07T04:32:15.092Z,73.16
2018-05-07T04:32:40.557Z,73.54
2018-05-07T04:33:06.066Z,73.54
2018-05-07T04:33:31.581Z,73.63
2018-05-07T04:33:57.079Z,73.54
2018-05-07T04:34:22.533Z,73.44
2018-05-07T04:34:47.998Z,74.02
2018-05-07T04:35:13.503Z,73.83
2018-05-07T04:35:38.968Z,73.83
2018-05-07T04:36:04.485Z,73.54
2018-05-07T04:36:29.939Z,73.73
2018-05-07T04:36:55.483Z,73.73
2018-05-07T04:37:21.049Z,73.73
2018-05-07T04:37:46.698Z,73.73
2018-05-07T04:38:12.238Z,73.54
2018-05-07T04:38:37.752Z,73.44
2018-05-07T04:39:03.323Z,73.44
2018-05-07T04:39:28.837Z,73.44
2018-05-07T04:39:54.401Z,73.35
2018-05-07T04:40:19.926Z,73.63
2018-05-07T04:40:45.429Z,73.44
2018-05-07T04:41:10.961Z,73.92
2018-05-07T04:41:36.455Z,73.63
2018-05-07T04:42:02.030Z,72.97
2018-05-07T04:42:27.508Z,73.07
2018-05-07T04:42:53.057Z,73.16
2018-05-07T04:43:18.596Z,73.16
2018-05-07T04:43:44.039Z,72.78
2018-05-07T04:44:09.664Z,73.35
2018-05-07T04:44:35.166Z,73
2018-05-07T04:45:00.699Z,72.68
2018-05-07T04:45:26.143Z,73
2018-05-07T04:45:51.612Z,72.39
2018-05-07T04:46:17.133Z,72.11
2018-05-07T04:46:42.675Z,72.33
2018-05-07T04:47:08.450Z,72.33
2018-05-07T04:47:33.966Z,72.43
2018-05-07T04:47:59.506Z,72.53
2018-05-07T04:48:25.153Z,71.95
2018-05-07T04:48:50.884Z,71.86
2018-05-07T04:49:16.320Z,71.95
2018-05-07T04:49:41.915Z,71.76
2018-05-07T04:50:07.449Z,71.86
2018-05-07T04:50:32.907Z,71.28
2018-05-07T04:50:58.427Z,71.09
2018-05-07T04:51:23.913Z,70.9
2018-05-07T04:51:49.415Z,71.03
2018-05-07T04:52:14.967Z,70.46
2018-05-07T04:52:40.470Z,70.94
2018-05-07T04:53:05.958Z,70.65
2018-05-07T04:53:31.419Z,70.75
2018-05-07T04:53:56.893Z,70.36
2018-05-07T04:54:22.411Z,70.46
2018-05-07T04:54:47.993Z,70.56
2018-05-07T04:55:13.614Z,70.17
2018-05-07T04:55:39.043Z,69.98
2018-05-07T04:56:04.497Z,70.27
2018-05-07T04:56:29.994Z,70.07
2018-05-07T04:56:55.549Z,70.46
2018-05-07T04:57:21.046Z,70.07
2018-05-07T04:57:46.485Z,70.07
2018-05-07T04:58:12.004Z,69.6
2018-05-07T04:58:37.453Z,69.54
2018-05-07T04:59:03.038Z,69.44
2018-05-07T04:59:28.419Z,68.87
2018-05-07T04:59:53.924Z,68.58
2018-05-07T05:00:19.397Z,68.01
2018-05-07T05:01:33.214Z,67.63
2018-05-07T05:01:58.726Z,67.37
2018-05-07T05:02:24.194Z,67.18
2018-05-07T05:02:49.672Z,67.43
2018-05-07T05:03:15.177Z,67.47
2018-05-07T05:03:40.650Z,67.47
2018-05-07T05:04:06.159Z,67.08
2018-05-07T05:04:31.685Z,67.08
2018-05-07T05:04:57.167Z,67.08
2018-05-07T05:05:22.676Z,66.89
2018-05-07T05:05:48.138Z,66.7
2018-05-07T05:06:13.722Z,67.37
2018-05-07T05:06:39.182Z,67.27
2018-05-07T05:07:04.750Z,66.7
2018-05-07T05:07:30.245Z,66.8
2018-05-07T05:07:55.661Z,66.51
2018-05-07T05:08:21.181Z,66.8
2018-05-07T05:08:46.630Z,66.7
2018-05-07T05:10:00.451Z,65.94
2018-05-07T05:10:25.904Z,66.41
2018-05-07T05:10:51.388Z,66.51
2018-05-07T05:11:16.856Z,65.74
2018-05-07T05:11:42.326Z,65.65
2018-05-07T05:12:07.777Z,65.55
2018-05-07T05:12:33.278Z,65.26
2018-05-07T05:12:58.778Z,64.88
2018-05-07T05:13:24.241Z,64.72
2018-05-07T05:13:49.742Z,64.82
2018-05-07T05:14:15.243Z,65.2
2018-05-07T05:14:40.759Z,65.11
2018-05-07T05:15:06.199Z,64.82
2018-05-07T05:15:31.649Z,64.63
2018-05-07T05:15:57.132Z,64.82
2018-05-07T05:16:22.592Z,65.3
2018-05-07T05:16:48.054Z,63.96
2018-05-07T05:17:13.537Z,63.67
2018-05-07T05:17:39.036Z,63.48
2018-05-07T05:18:04.538Z,63.19
2018-05-07T05:18:30.042Z,63.39
2018-05-07T05:18:55.545Z,63.76
2018-05-07T05:19:21.064Z,63.67
2018-05-07T05:19:46.582Z,63.67
2018-05-07T05:20:12.105Z,63.57
2018-05-07T05:20:37.579Z,63.39
2018-05-07T05:21:03.074Z,63.57
2018-05-07T05:21:28.550Z,63.19
2018-05-07T05:21:54.070Z,63.19
2018-05-07T05:22:19.681Z,63.76
2018-05-07T05:22:45.184Z,63.57
2018-05-07T05:23:10.660Z,63.32
2018-05-07T05:23:36.170Z,63.13
2018-05-07T05:24:01.613Z,63.32
2018-05-07T05:24:27.148Z,63.03
2018-05-07T05:24:52.697Z,62.74
2018-05-07T05:25:18.278Z,62.74
2018-05-07T05:25:43.819Z,62.74
2018-05-07T05:26:09.399Z,61.88
2018-05-07T05:26:34.909Z,61.5
2018-05-07T05:27:00.415Z,61.4
2018-05-07T05:27:26.011Z,61.6
2018-05-07T05:27:51.487Z,61.6
2018-05-07T05:28:17.077Z,61.79
2018-05-07T05:28:42.638Z,61.79
2018-05-07T05:29:08.156Z,61.82
2018-05-07T05:29:33.691Z,61.91
2018-05-07T05:29:59.167Z,61.05
2018-05-07T05:30:24.739Z,60.96
2018-05-07T05:30:50.244Z,60.96
2018-05-07T05:31:15.796Z,60.86
2018-05-07T05:31:41.331Z,60.38
2018-05-07T05:32:06.795Z,60.19
2018-05-07T05:32:32.378Z,60.47
2018-05-07T05:32:57.871Z,60.09
2018-05-07T05:33:23.375Z,59.52
2018-05-07T05:33:48.896Z,59.04
2018-05-07T05:34:14.362Z,59.64
2018-05-07T05:34:39.895Z,59.45
2018-05-07T05:35:05.530Z,59.64
2018-05-07T05:35:30.940Z,59.64
2018-05-07T05:36:44.820Z,58.87
2018-05-07T05:37:10.310Z,58.59
2018-05-07T05:37:35.788Z,59.36
2018-05-07T05:38:01.293Z,58.78
2018-05-07T05:38:26.845Z,58.59
2018-05-07T05:38:52.382Z,58.59
2018-05-07T05:39:17.970Z,58.87
2018-05-07T05:39:43.476Z,58.33
2018-05-07T05:40:09.133Z,58.33
2018-05-07T05:40:34.635Z,57.95
2018-05-07T05:41:00.102Z,58.33
2018-05-07T05:41:25.675Z,58.33
2018-05-07T05:41:51.230Z,57.75
2018-05-07T05:42:16.776Z,58.33
2018-05-07T05:42:42.286Z,58.14
2018-05-07T05:43:07.868Z,57.95
2018-05-07T05:43:33.423Z,57.37
2018-05-07T05:43:58.886Z,57.18
2018-05-07T05:44:24.476Z,57.65
2018-05-07T05:44:50.098Z,57.18
2018-05-07T05:45:15.488Z,57.46
2018-05-07T05:45:41.031Z,57.37
2018-05-07T05:46:06.584Z,57.37
2018-05-07T05:47:15.377Z,57.4
2018-05-07T05:47:40.853Z,57.3
2018-05-07T05:48:06.381Z,57.21
2018-05-07T05:48:31.861Z,57.4
2018-05-07T05:48:57.405Z,56.82
2018-05-07T05:49:22.927Z,56.82
2018-05-07T05:49:48.372Z,56.73
2018-05-07T05:50:14.009Z,56.53
2018-05-07T05:50:39.464Z,56.44
2018-05-07T05:51:05.105Z,56.15
2018-05-07T05:51:30.676Z,56.82
2018-05-07T05:51:56.260Z,56.53
2018-05-07T05:52:21.772Z,56.44
2018-05-07T05:52:47.290Z,56.15
2018-05-07T05:53:12.828Z,56.22
2018-05-07T05:53:38.338Z,56.51
2018-05-07T05:54:03.846Z,56.22
2018-05-07T05:54:29.358Z,56.79
2018-05-07T05:54:54.866Z,56.79
2018-05-07T05:55:20.465Z,56.6
2018-05-07T05:55:46.170Z,56.79
2018-05-07T05:56:11.664Z,56.7
2018-05-07T05:56:37.138Z,56.6
2018-05-07T05:57:02.588Z,56.24
2018-05-07T05:57:28.047Z,56.7
2018-05-07T05:57:53.540Z,56.53
2018-05-07T05:58:19.029Z,56.92
2018-05-07T05:58:44.514Z,56.44
2018-05-07T05:59:10.026Z,56.92
2018-05-07T05:59:35.539Z,56.53
2018-05-07T06:00:01.086Z,56.92
2018-05-07T06:00:26.606Z,56.63
2018-05-07T06:00:52.167Z,56.92
2018-05-07T06:01:17.633Z,56.44
2018-05-07T06:01:43.286Z,56.05
2018-05-07T06:02:08.932Z,55.67
2018-05-07T06:02:34.565Z,56.05
2018-05-07T06:03:00.026Z,55.77
2018-05-07T06:03:25.510Z,56.05
2018-05-07T06:03:51.197Z,55.19
2018-05-07T06:04:16.594Z,55.47
2018-05-07T06:04:42.105Z,55.77
2018-05-07T06:05:07.583Z,55.45
2018-05-07T06:06:05.644Z,55.55
2018-05-07T06:06:31.152Z,55.93
2018-05-07T06:06:56.641Z,55.74
2018-05-07T06:07:22.131Z,56.22
2018-05-07T06:07:47.631Z,56.51
2018-05-07T06:08:13.229Z,56.79
2018-05-07T06:08:38.731Z,56.89
2018-05-07T06:09:04.310Z,56.7
2018-05-07T06:09:29.779Z,56.51
2018-05-07T06:09:55.247Z,56.73
2018-05-07T06:10:20.755Z,56.34
2018-05-07T06:10:46.246Z,56.05
2018-05-07T06:11:11.749Z,56.05
2018-05-07T06:11:37.282Z,56.15
2018-05-07T06:12:02.835Z,56.05
2018-05-07T06:12:28.330Z,56.63
2018-05-07T06:12:53.821Z,56.46
2018-05-07T06:13:19.308Z,56.44
2018-05-07T06:13:44.842Z,55.6
2018-05-07T06:14:10.332Z,55.02
2018-05-07T06:14:35.849Z,54.8
2018-05-07T06:15:01.480Z,55.22
2018-05-07T06:15:26.856Z,54.64
2018-05-07T06:15:52.379Z,54.83
2018-05-07T06:16:17.868Z,54.55
2018-05-07T06:16:43.393Z,54.64
2018-05-07T06:17:08.958Z,53.97
2018-05-07T06:17:34.453Z,53.68
2018-05-07T06:17:59.995Z,54.06
2018-05-07T06:18:25.542Z,54.06
2018-05-07T06:18:51.099Z,54.35
2018-05-07T06:19:16.620Z,54.06
2018-05-07T06:19:42.091Z,53.87
2018-05-07T06:20:07.633Z,53.97
2018-05-07T06:20:33.127Z,53.78
2018-05-07T06:20:58.609Z,53.68
2018-05-07T06:21:24.245Z,53.87
2018-05-07T06:21:49.652Z,53.97
2018-05-07T06:22:15.135Z,54.06
2018-05-07T06:22:40.747Z,54.35
2018-05-07T06:23:06.274Z,54.45
2018-05-07T06:23:32.040Z,54.06
2018-05-07T06:23:57.596Z,53.87
2018-05-07T06:24:23.078Z,54.25
2018-05-07T06:24:48.580Z,54.16
2018-05-07T06:25:14.210Z,54.09
2018-05-07T06:25:40.273Z,53.8
2018-05-07T06:26:05.418Z,52.81
2018-05-07T06:26:31.004Z,52.75
2018-05-07T06:26:56.487Z,53.2
2018-05-07T06:27:22.047Z,53.23
2018-05-07T06:27:47.564Z,52.84
2018-05-07T06:28:13.242Z,53.68
2018-05-07T06:28:39.283Z,53.52
2018-05-07T06:29:04.984Z,53.32
2018-05-07T06:29:31.169Z,54.19
2018-05-07T06:29:56.643Z,53.52
2018-05-07T06:30:22.175Z,52.94
2018-05-07T06:30:47.660Z,52.75
2018-05-07T06:31:13.163Z,51.98
2018-05-07T06:31:38.732Z,52.08
2018-05-07T06:32:04.260Z,52.55
2018-05-07T06:32:29.859Z,52.46
2018-05-07T06:32:55.517Z,52.65
2018-05-07T06:33:21.042Z,52.55
2018-05-07T06:33:46.642Z,52
2018-05-07T06:34:12.165Z,52.26
2018-05-07T06:34:37.720Z,52.1
2018-05-07T06:35:03.169Z,52.2
2018-05-07T06:35:28.785Z,52.1
2018-05-07T06:35:54.331Z,51.91
2018-05-07T06:36:19.892Z,52.1
2018-05-07T06:36:45.551Z,52.2
2018-05-07T06:37:11.096Z,51.43
2018-05-07T06:37:36.887Z,52
2018-05-07T06:38:02.396Z,51.81
2018-05-07T06:38:27.996Z,51.91
2018-05-07T06:38:53.532Z,51.33
2018-05-07T06:39:19.097Z,51.14
2018-05-07T06:39:44.744Z,51.04
2018-05-07T06:40:10.553Z,50.85
2018-05-07T06:40:36.207Z,50.68
2018-05-07T06:41:01.772Z,50.87
2018-05-07T06:41:27.458Z,50.46
2018-05-07T06:41:53.258Z,50.46
2018-05-07T06:42:19.001Z,50.18
2018-05-07T06:42:44.769Z,49.99
2018-05-07T06:43:10.412Z,50.46
2018-05-07T06:43:36.071Z,49.99
2018-05-07T06:44:01.853Z,49.99
2018-05-07T06:44:27.358Z,49.89
2018-05-07T06:44:52.844Z,49.79
2018-05-07T06:45:18.369Z,50.08
2018-05-07T06:45:43.989Z,50.08
2018-05-07T06:46:09.523Z,50.66
2018-05-07T06:46:35.154Z,50.46
2018-05-07T06:47:00.673Z,50.08
2018-05-07T06:47:26.161Z,49.89
2018-05-07T06:47:51.751Z,49.6
2018-05-07T06:48:17.331Z,50.27
2018-05-07T06:48:43.786Z,50.27
2018-05-07T06:49:52.794Z,50.46
2018-05-07T06:50:19.483Z,50.66
2018-05-07T06:50:45.242Z,50.66
2018-05-07T06:51:10.744Z,49.99
2018-05-07T06:51:36.250Z,49.91
2018-05-07T06:52:01.898Z,50.78
2018-05-07T06:52:27.637Z,50.49
2018-05-07T06:52:53.148Z,50.68
2018-05-07T06:53:18.631Z,50.1
2018-05-07T06:53:44.205Z,50.01
2018-05-07T06:54:09.667Z,49.33
2018-05-07T06:54:35.211Z,49.24
2018-05-07T06:55:00.760Z,49.33
2018-05-07T06:55:26.313Z,49.43
2018-05-07T06:55:51.811Z,49.24
2018-05-07T06:56:17.617Z,49.53
2018-05-07T06:56:43.096Z,49.24
2018-05-07T06:57:08.702Z,49.33
2018-05-07T06:57:34.121Z,49.43
2018-05-07T06:57:59.632Z,49.91
2018-05-07T06:58:25.205Z,49.43
2018-05-07T06:58:50.792Z,49.43
2018-05-07T06:59:16.355Z,49.24
2018-05-07T06:59:41.903Z,49.33
2018-05-07T07:00:07.543Z,49.33
2018-05-07T07:00:33.107Z,49.33
2018-05-07T07:00:58.647Z,49.33
2018-05-07T07:01:24.199Z,49.43
2018-05-07T07:01:49.785Z,48.66
2018-05-07T07:02:15.304Z,48.08
2018-05-07T07:02:40.932Z,47.89
2018-05-07T07:03:06.308Z,47.89
2018-05-07T07:03:31.877Z,48.28
2018-05-07T07:03:57.299Z,48.28
2018-05-07T07:04:23.158Z,48.57
2018-05-07T07:04:48.644Z,48.38
2018-05-07T07:05:14.152Z,49.24
2018-05-07T07:05:39.791Z,49.05
2018-05-07T07:06:05.415Z,49.63
2018-05-07T07:06:30.982Z,49.53
2018-05-07T07:06:56.500Z,49.55
2018-05-07T07:07:22.139Z,49.27
2018-05-07T07:07:47.597Z,48.97
2018-05-07T07:08:13.160Z,49.36
2018-05-07T07:08:38.876Z,48.97
2018-05-07T07:09:04.417Z,49.65
2018-05-07T07:09:29.956Z,48.97
2018-05-07T07:09:55.462Z,48.4
2018-05-07T07:10:21.030Z,48.3
2018-05-07T07:10:46.523Z,48.4
2018-05-07T07:11:12.017Z,48.4
2018-05-07T07:11:37.564Z,48.4
2018-05-07T07:12:03.172Z,47.85
2018-05-07T07:12:28.803Z,48.03
2018-05-07T07:12:54.378Z,48.33
2018-05-07T07:13:20.025Z,48.33
2018-05-07T07:13:45.540Z,48.02
2018-05-07T07:14:11.078Z,48.23
2018-05-07T07:14:36.669Z,47.53
2018-05-07T07:15:02.367Z,47.53
2018-05-07T07:15:27.920Z,47.56
2018-05-07T07:15:53.483Z,47.15
2018-05-07T07:16:19.010Z,47.24
2018-05-07T07:16:44.572Z,47.17
2018-05-07T07:17:10.134Z,47.05
2018-05-07T07:17:35.669Z,47.17
2018-05-07T07:18:01.229Z,47.05
2018-05-07T07:18:26.949Z,48.02
2018-05-07T07:18:52.468Z,48.03
2018-05-07T07:19:18.205Z,47.92
2018-05-07T07:19:44.170Z,47.75
2018-05-07T07:20:09.892Z,48.03
2018-05-07T07:20:35.489Z,48.03
2018-05-07T07:21:01.009Z,47.46
2018-05-07T07:21:26.530Z,47.65
2018-05-07T07:21:52.269Z,47.85
2018-05-07T07:22:17.761Z,47.85
2018-05-07T07:22:43.260Z,48.52
2018-05-07T07:23:08.796Z,48.52
2018-05-07T07:23:34.388Z,48.13
2018-05-07T07:23:59.945Z,47.36
2018-05-07T07:24:25.591Z,47.29
2018-05-07T07:24:51.109Z,47
2018-05-07T07:25:16.657Z,46.91
2018-05-07T07:25:42.206Z,47.39
2018-05-07T07:26:07.844Z,47.1
2018-05-07T07:26:33.442Z,47.49
2018-05-07T07:26:59.011Z,47
2018-05-07T07:27:24.618Z,47.19
2018-05-07T07:27:50.159Z,47.19
2018-05-07T07:28:15.840Z,46.81
2018-05-07T07:28:41.323Z,46.62
2018-05-07T07:29:06.951Z,46.52
2018-05-07T07:29:32.460Z,46.33
2018-05-07T07:29:58.030Z,46.25
2018-05-07T07:30:23.645Z,46.33
2018-05-07T07:30:49.129Z,46.25
2018-05-07T07:31:14.735Z,46.64
2018-05-07T07:31:40.359Z,47.03
2018-05-07T07:32:05.944Z,46.64
2018-05-07T07:32:31.488Z,45.97
2018-05-07T07:32:57.142Z,46.06
2018-05-07T07:33:22.634Z,45.97
2018-05-07T07:33:48.295Z,45.87
2018-05-07T07:34:13.739Z,45.68
2018-05-07T07:34:39.484Z,45.1
2018-05-07T07:35:05.194Z,45.2
2018-05-07T07:35:30.811Z,44.9
2018-05-07T07:35:56.357Z,44.71
2018-05-07T07:36:21.917Z,45.2
2018-05-07T07:36:47.511Z,45.48
2018-05-07T07:37:13.189Z,45.2
2018-05-07T07:37:38.707Z,45.07
2018-05-07T07:38:04.387Z,45.48
2018-05-07T07:38:30.016Z,45.68
2018-05-07T07:38:55.494Z,45.77
2018-05-07T07:39:21.340Z,45
2018-05-07T07:39:46.863Z,45.2
2018-05-07T07:40:12.466Z,45.48
2018-05-07T07:40:38.098Z,45.1
2018-05-07T07:41:03.687Z,45.29
2018-05-07T07:41:29.273Z,44.9
2018-05-07T07:41:54.876Z,45
2018-05-07T07:42:20.483Z,44.62
2018-05-07T07:42:46.029Z,44.81
2018-05-07T07:43:11.625Z,44.9
2018-05-07T07:43:37.200Z,45.2
2018-05-07T07:44:02.765Z,45.39
2018-05-07T07:44:28.333Z,45.2
2018-05-07T07:44:53.957Z,45.2
2018-05-07T07:45:19.695Z,45.2
2018-05-07T07:45:45.089Z,44.98
2018-05-07T07:46:10.714Z,45.27
2018-05-07T07:46:36.194Z,44.52
2018-05-07T07:47:02.471Z,45.17
2018-05-07T07:47:28.450Z,45.07
2018-05-07T07:47:54.288Z,45.56
2018-05-07T07:48:19.804Z,45.56
2018-05-07T07:48:45.452Z,45.94
2018-05-07T07:49:10.935Z,46.33
2018-05-07T07:49:36.568Z,46.25
2018-05-07T07:50:02.157Z,45.87
2018-05-07T07:50:27.679Z,45.97
2018-05-07T07:50:53.321Z,46.06
2018-05-07T07:51:19.382Z,46.06
2018-05-07T07:51:47.461Z,45.58
2018-05-07T07:52:13.844Z,45.1
2018-05-07T07:52:39.570Z,45.2
2018-05-07T07:53:05.090Z,44.81
2018-05-07T07:53:30.842Z,44.9
2018-05-07T07:53:56.274Z,44.9
2018-05-07T07:54:23.665Z,45.2
2018-05-07T07:54:50.471Z,45.68
2018-05-07T07:55:18.575Z,45.2
2018-05-07T07:55:46.654Z,45.2
2018-05-07T07:56:12.722Z,45.1
2018-05-07T07:56:38.904Z,45
2018-05-07T07:57:05.982Z,45
2018-05-07T07:57:32.077Z,44.71
2018-05-07T07:57:58.453Z,44.32
2018-05-07T07:58:25.199Z,44.52
2018-05-07T07:58:51.004Z,44.32
2018-05-07T07:59:16.737Z,44.81
2018-05-07T07:59:42.230Z,43.85
2018-05-07T08:00:07.809Z,44.04
2018-05-07T08:00:33.330Z,44.71
2018-05-07T08:01:32.124Z,45
2018-05-07T08:02:00.431Z,44.81
2018-05-07T08:02:25.624Z,44.9
2018-05-07T08:02:51.160Z,44.64
2018-05-07T08:03:16.790Z,44.71
2018-05-07T08:03:42.515Z,44.71
2018-05-07T08:04:08.638Z,44.71
2018-05-07T08:04:34.769Z,44.83
2018-05-07T08:05:00.327Z,43.87
2018-05-07T08:05:25.893Z,43.58
2018-05-07T08:05:51.405Z,43.77
2018-05-07T08:06:16.958Z,43.96
2018-05-07T08:06:42.480Z,44.64
2018-05-07T08:07:08.044Z,44.15
2018-05-07T08:07:33.524Z,43.96
2018-05-07T08:07:59.063Z,44.06
2018-05-07T08:08:24.619Z,43.77
2018-05-07T08:08:50.140Z,43.58
2018-05-07T08:09:15.722Z,43.87
2018-05-07T08:09:41.370Z,43.77
2018-05-07T08:10:06.947Z,43.38
2018-05-07T08:10:32.603Z,43.19
2018-05-07T08:10:58.238Z,43.29
2018-05-07T08:11:23.705Z,43.58
2018-05-07T08:11:49.250Z,43.87
2018-05-07T08:12:14.943Z,43.96
2018-05-07T08:12:40.482Z,43.67
2018-05-07T08:13:06.046Z,43.67
2018-05-07T08:13:31.631Z,43.7
2018-05-07T08:13:57.549Z,43.89
2018-05-07T08:14:23.103Z,43.41
2018-05-07T08:14:48.690Z,43.31
2018-05-07T08:15:14.656Z,43.7
2018-05-07T08:15:40.198Z,43.6
2018-05-07T08:16:06.197Z,43.89
2018-05-07T08:16:32.520Z,43.6
2018-05-07T08:16:58.215Z,43.21
2018-05-07T08:17:24.601Z,43.12
2018-05-07T08:17:51.549Z,42.93
2018-05-07T08:18:18.549Z,43.12
2018-05-07T08:18:43.909Z,42.63
2018-05-07T08:19:09.906Z,42.63
2018-05-07T08:19:36.357Z,43.02
2018-05-07T08:20:01.823Z,42.93
2018-05-07T08:20:27.569Z,43.21
2018-05-07T08:20:53.419Z,43.41
2018-05-07T08:21:20.051Z,43.12
2018-05-07T08:21:45.609Z,43.24
2018-05-07T08:22:11.084Z,43.24
2018-05-07T08:22:36.652Z,43.21
2018-05-07T08:23:02.215Z,43.62
2018-05-07T08:23:27.763Z,43.24
2018-05-07T08:23:53.402Z,41.98
2018-05-07T08:24:19.146Z,42.27
2018-05-07T08:24:44.695Z,42.18
2018-05-07T08:25:10.401Z,42.75
2018-05-07T08:25:36.079Z,42.08
2018-05-07T08:26:01.723Z,42.08
2018-05-07T08:26:27.296Z,42.75
2018-05-07T08:26:52.896Z,41.98
2018-05-07T08:27:18.541Z,42.36
2018-05-07T08:27:44.248Z,41.88
2018-05-07T08:28:09.592Z,41.88
2018-05-07T08:28:35.181Z,42.27
2018-05-07T08:29:00.732Z,42.08
2018-05-07T08:29:26.331Z,42.56
2018-05-07T08:29:51.949Z,42.46
2018-05-07T08:30:17.784Z,41.98
2018-05-07T08:30:43.297Z,41.69
2018-05-07T08:31:08.869Z,42.08
2018-05-07T08:31:34.639Z,42.36
2018-05-07T08:32:00.295Z,41.98
2018-05-07T08:32:25.861Z,41.88
2018-05-07T08:32:52.131Z,41.2
2018-05-07T08:33:17.733Z,41.11
2018-05-07T08:33:43.382Z,41.3
2018-05-07T08:34:09.055Z,41.3
2018-05-07T08:34:34.759Z,41.48
2018-05-07T08:35:00.623Z,41.6
2018-05-07T08:35:26.428Z,41.38
2018-05-07T08:35:51.983Z,42.25
2018-05-07T08:36:17.638Z,41.86
2018-05-07T08:36:44.106Z,42.27
2018-05-07T08:37:10.521Z,42.18
2018-05-07T08:37:36.596Z,42.27
2018-05-07T08:38:02.610Z,41.69
2018-05-07T08:38:28.526Z,42.08
2018-05-07T08:38:54.608Z,41.88
2018-05-07T08:39:20.162Z,41.4
2018-05-07T08:39:45.762Z,41.5
2018-05-07T08:40:11.325Z,41.3
2018-05-07T08:40:36.966Z,41.5
2018-05-07T08:41:03.312Z,41.88
2018-05-07T08:41:29.623Z,41.3
2018-05-07T08:41:55.216Z,41.5
2018-05-07T08:42:20.818Z,40.72
2018-05-07T08:42:46.462Z,40.82
2018-05-07T08:43:12.282Z,41.02
2018-05-07T08:43:38.015Z,41.3
2018-05-07T08:44:03.508Z,41.2
2018-05-07T08:44:29.132Z,40.82
2018-05-07T08:44:54.852Z,41.3
2018-05-07T08:45:20.250Z,40.92
2018-05-07T08:45:45.919Z,40.92
2018-05-07T08:46:11.554Z,41.19
2018-05-07T08:46:37.154Z,41.28
2018-05-07T08:47:02.718Z,41.5
2018-05-07T08:47:28.348Z,41.02
2018-05-07T08:47:53.910Z,41.3
2018-05-07T08:48:19.457Z,41.2
2018-05-07T08:48:45.048Z,41.3
2018-05-07T08:49:10.551Z,41.4
2018-05-07T08:49:36.151Z,41.5
2018-05-07T08:50:01.856Z,41.5
2018-05-07T08:50:27.424Z,41.2
2018-05-07T08:50:52.986Z,40.82
2018-05-07T08:51:18.559Z,41.2
2018-05-07T08:52:27.413Z,40.72
2018-05-07T08:52:52.976Z,41.4
2018-05-07T08:53:18.562Z,41.5
2018-05-07T08:53:43.987Z,41.78
2018-05-07T08:54:09.607Z,41.88
2018-05-07T08:54:35.176Z,41.98
2018-05-07T08:55:00.638Z,41.78
2018-05-07T08:55:26.237Z,41.98
2018-05-07T08:55:51.784Z,41.6
2018-05-07T08:56:17.337Z,41.23
2018-05-07T08:56:43.014Z,41.2
2018-05-07T08:57:08.600Z,40.82
2018-05-07T08:57:34.190Z,40.75
2018-05-07T08:57:59.864Z,41.4
2018-05-07T08:58:25.402Z,41.6
2018-05-07T08:58:51.088Z,41.98
2018-05-07T08:59:16.749Z,41.98
2018-05-07T08:59:42.443Z,42.29
2018-05-07T09:00:08.015Z,42.19
2018-05-07T09:00:33.513Z,41.42
2018-05-07T09:00:59.131Z,41.42
2018-05-07T09:01:24.684Z,41.52
2018-05-07T09:01:50.260Z,41.81
2018-05-07T09:02:15.854Z,42
2018-05-07T09:02:41.484Z,41.81
2018-05-07T09:03:07.040Z,41.71
2018-05-07T09:03:32.682Z,41.52
2018-05-07T09:03:58.183Z,41.52
2018-05-07T09:04:23.765Z,40.94
2018-05-07T09:04:49.394Z,40.45
2018-05-07T09:05:14.957Z,40.55
2018-05-07T09:05:40.563Z,40.84
2018-05-07T09:06:06.098Z,40.84
2018-05-07T09:06:31.720Z,40.86
2018-05-07T09:06:57.312Z,40.28
2018-05-07T09:07:22.843Z,40.75
2018-05-07T09:07:48.433Z,40.86
2018-05-07T09:08:14.011Z,40.57
2018-05-07T09:08:39.677Z,40.47
2018-05-07T09:09:05.218Z,40.19
2018-05-07T09:09:30.777Z,39.9
2018-05-07T09:09:56.341Z,39.99
2018-05-07T09:10:21.876Z,39.8
2018-05-07T09:10:47.462Z,40.09
2018-05-07T09:11:12.998Z,39.99
2018-05-07T09:11:38.605Z,39.8
2018-05-07T09:12:04.178Z,39.41
2018-05-07T09:12:29.721Z,39.51
2018-05-07T09:12:55.447Z,39.7
2018-05-07T09:13:21.002Z,39.99
2018-05-07T09:13:46.519Z,39.99
2018-05-07T09:14:12.092Z,40.09
2018-05-07T09:14:37.618Z,39.9
2018-05-07T09:15:03.668Z,40.09
2018-05-07T09:15:29.288Z,39.9
2018-05-07T09:15:54.921Z,40.09
2018-05-07T09:16:20.395Z,40.09
2018-05-07T09:16:45.898Z,39.9
2018-05-07T09:17:11.408Z,40.57
2018-05-07T09:17:36.982Z,39.99
2018-05-07T09:18:02.482Z,39.99
2018-05-07T09:18:28.072Z,39.99
2018-05-07T09:18:53.588Z,39.9
2018-05-07T09:19:19.147Z,39.7
2018-05-07T09:19:44.669Z,39.9
2018-05-07T09:20:10.238Z,39.41
2018-05-07T09:20:35.857Z,39.12
2018-05-07T09:21:01.456Z,39.22
2018-05-07T09:21:26.975Z,39.51
2018-05-07T09:21:52.496Z,39.51
2018-05-07T09:22:18.063Z,39.12
2018-05-07T09:22:43.663Z,39.32
2018-05-07T09:23:09.202Z,39.99
2018-05-07T09:23:34.830Z,39.9
2018-05-07T09:24:00.366Z,39.99
2018-05-07T09:24:25.949Z,39.7
2018-05-07T09:24:51.554Z,39.7
2018-05-07T09:25:17.077Z,40.28
2018-05-07T09:25:42.752Z,39.9
2018-05-07T09:26:08.250Z,39.61
2018-05-07T09:26:33.769Z,39.12
2018-05-07T09:26:59.295Z,39.12
2018-05-07T09:27:24.907Z,39.51
2018-05-07T09:27:50.440Z,38.74
2018-05-07T09:28:15.990Z,39.22
2018-05-07T09:28:41.579Z,39.41
2018-05-07T09:29:07.097Z,39.12
2018-05-07T09:29:32.644Z,39.32
2018-05-07T09:29:58.151Z,39.22
2018-05-07T09:30:23.724Z,38.83
2018-05-07T09:30:49.253Z,39.22
2018-05-07T09:31:14.821Z,38.93
2018-05-07T09:31:40.325Z,39.03
2018-05-07T09:32:05.938Z,38.85
2018-05-07T09:32:31.638Z,38.76
2018-05-07T09:32:57.104Z,39.14
2018-05-07T09:33:22.828Z,39.04
2018-05-07T09:33:48.445Z,38.18
2018-05-07T09:34:14.066Z,37.98
2018-05-07T09:34:39.658Z,38.18
2018-05-07T09:35:05.224Z,38.37
2018-05-07T09:35:30.949Z,38.54
2018-05-07T09:35:56.513Z,38.74
2018-05-07T09:36:22.139Z,38.83
2018-05-07T09:36:47.647Z,38.83
2018-05-07T09:37:13.337Z,38.16
2018-05-07T09:37:38.950Z,38.56
2018-05-07T09:38:04.496Z,38.76
2018-05-07T09:38:30.100Z,38.66
2018-05-07T09:38:55.590Z,38.66
2018-05-07T09:39:21.164Z,38.56
2018-05-07T09:39:46.731Z,38.28
2018-05-07T09:40:12.237Z,37.98
2018-05-07T09:40:37.860Z,37.7
2018-05-07T09:41:03.408Z,37.7
2018-05-07T09:41:29.056Z,37.98
2018-05-07T09:41:54.647Z,37.7
2018-05-07T09:42:20.243Z,37.79
2018-05-07T09:42:45.864Z,37.4
2018-05-07T09:43:11.427Z,37.21
2018-05-07T09:43:37.665Z,36.92
2018-05-07T09:44:03.298Z,36.15
2018-05-07T09:44:28.894Z,36.44
2018-05-07T09:44:54.459Z,37.02
2018-05-07T09:45:20.125Z,37.1
2018-05-07T09:45:45.743Z,36.92
2018-05-07T09:46:11.303Z,36.63
2018-05-07T09:46:36.878Z,36.44
2018-05-07T09:47:02.469Z,36.63
2018-05-07T09:47:27.975Z,36.72
2018-05-07T09:47:53.528Z,36.05
2018-05-07T09:48:19.240Z,36.34